createdAt,value
2023-03-10T00:01:12.605Z,10.70
2023-03-10T00:03:40.869Z,10.70
2023-03-10T00:06:10.311Z,10.70
2023-03-10T00:08:38.338Z,10.70
2023-03-10T00:11:08.033Z,10.70
2023-03-10T00:13:36.375Z,10.70
2023-03-10T00:16:04.786Z,10.70
2023-03-10T00:18:32.904Z,10.70
2023-03-10T00:21:01.112Z,10.70
2023-03-10T00:23:28.967Z,10.70
2023-03-10T00:25:58.253Z,10.70
2023-03-10T00:28:28.517Z,10.70
2023-03-10T00:31:01.160Z,10.70
2023-03-10T00:33:30.786Z,10.70
2023-03-10T00:36:06.610Z,10.70
2023-03-10T00:38:35.190Z,10.60
2023-03-10T00:41:05.327Z,10.60
2023-03-10T00:43:34.927Z,10.60
2023-03-10T00:46:03.019Z,10.60
2023-03-10T00:48:31.050Z,10.60
2023-03-10T00:50:59.743Z,10.60
2023-03-10T00:53:28.581Z,10.60
2023-03-10T00:56:01.425Z,10.60
2023-03-10T00:58:29.512Z,10.60
2023-03-10T01:00:59.286Z,10.50
2023-03-10T01:03:27.991Z,10.50
2023-03-10T01:05:56.562Z,10.50
2023-03-10T01:08:24.973Z,10.50
2023-03-10T01:10:53.126Z,10.50
2023-03-10T01:13:22.723Z,10.50
2023-03-10T01:15:51.158Z,10.50
2023-03-10T01:18:21.283Z,10.40
2023-03-10T01:20:50.026Z,10.40
2023-03-10T01:23:20.563Z,10.40
2023-03-10T01:25:49.514Z,10.40
2023-03-10T01:28:18.223Z,10.40
2023-03-10T01:30:56.728Z,10.40
2023-03-10T01:33:26.014Z,10.40
2023-03-10T01:35:53.908Z,10.40
2023-03-10T01:38:21.782Z,10.40
2023-03-10T01:40:51.385Z,10.40
2023-03-10T01:43:28.533Z,10.40
2023-03-10T01:46:38.263Z,10.40
2023-03-10T01:49:13.568Z,10.40
2023-03-10T01:51:47.009Z,10.30
2023-03-10T01:54:18.637Z,10.30
2023-03-10T01:56:47.365Z,10.40
2023-03-10T01:59:15.682Z,10.30
2023-03-10T02:01:44.046Z,10.30
2023-03-10T02:04:20.071Z,10.30
2023-03-10T02:06:49.196Z,10.30
2023-03-10T02:09:18.960Z,10.30
2023-03-10T02:11:49.369Z,10.30
2023-03-10T02:14:18.778Z,10.30
2023-03-10T02:16:47.131Z,10.30
2023-03-10T02:19:35.551Z,10.30
2023-03-10T02:22:07.843Z,10.30
2023-03-10T02:24:44.062Z,10.20
2023-03-10T02:27:30.557Z,10.20
2023-03-10T02:30:03.155Z,10.20
2023-03-10T02:32:34.876Z,10.20
2023-03-10T02:35:02.962Z,10.20
2023-03-10T02:37:32.576Z,10.20
2023-03-10T02:40:00.712Z,10.20
2023-03-10T02:42:33.819Z,10.20
2023-03-10T02:45:03.703Z,10.20
2023-03-10T02:47:31.741Z,10.20
2023-03-10T02:49:59.597Z,10.20
2023-03-10T02:52:33.789Z,10.20
2023-03-10T02:55:01.739Z,10.20
2023-03-10T02:57:30.965Z,10.20
2023-03-10T02:59:58.774Z,10.20
2023-03-10T03:02:26.779Z,10.10
2023-03-10T03:04:54.696Z,10.20
2023-03-10T03:07:22.650Z,10.20
2023-03-10T03:09:50.587Z,10.10
2023-03-10T03:12:18.413Z,10.10
2023-03-10T03:14:48.811Z,10.10
2023-03-10T03:17:16.702Z,10.10
2023-03-10T03:19:44.564Z,10.20
2023-03-10T03:22:12.384Z,10.10
2023-03-10T03:24:40.258Z,10.10
2023-03-10T03:27:08.127Z,10.10
2023-03-10T03:29:35.974Z,10.10
2023-03-10T03:32:05.916Z,10.10
2023-03-10T03:34:33.737Z,10.10
2023-03-10T03:37:01.696Z,10.10
2023-03-10T03:39:29.624Z,10.10
2023-03-10T03:41:57.536Z,10.10
2023-03-10T03:44:25.482Z,10.10
2023-03-10T03:46:53.401Z,10.10
2023-03-10T03:49:22.620Z,10.10
2023-03-10T03:51:50.488Z,10.10
2023-03-10T03:54:18.368Z,10.10
2023-03-10T03:56:53.643Z,10.10
2023-03-10T03:59:21.579Z,10.20
2023-03-10T04:01:49.416Z,10.10
2023-03-10T04:04:17.436Z,10.10
2023-03-10T04:06:47.068Z,10.10
2023-03-10T04:09:14.923Z,10.10
2023-03-10T04:11:42.899Z,10.10
2023-03-10T04:14:10.834Z,10.20
2023-03-10T04:16:38.754Z,10.20
2023-03-10T04:19:07.968Z,10.10
2023-03-10T04:21:36.484Z,10.10
2023-03-10T04:24:06.442Z,10.10
2023-03-10T04:26:34.396Z,10.20
2023-03-10T04:29:02.286Z,10.20
2023-03-10T04:31:30.291Z,10.20
2023-03-10T04:33:58.317Z,10.10
2023-03-10T04:36:26.231Z,10.10
2023-03-10T04:38:54.129Z,10.10
2023-03-10T04:41:23.453Z,10.10
2023-03-10T04:43:51.689Z,10.10
2023-03-10T04:46:19.726Z,10.10
2023-03-10T04:48:48.002Z,10.10
2023-03-10T04:51:15.995Z,10.10
2023-03-10T04:53:43.854Z,10.10
2023-03-10T04:56:12.759Z,10.10
2023-03-10T04:58:41.969Z,10.10
2023-03-10T05:01:11.306Z,10.10
2023-03-10T05:03:39.220Z,10.10
2023-03-10T05:06:13.453Z,10.00
2023-03-10T05:08:41.420Z,10.00
2023-03-10T05:11:10.249Z,10.00
2023-03-10T05:13:38.360Z,10.00
2023-03-10T05:16:14.316Z,10.00
2023-03-10T05:18:42.726Z,10.00
2023-03-10T05:21:11.081Z,10.00
2023-03-10T05:23:39.094Z,10.00
2023-03-10T05:26:07.850Z,10.00
2023-03-10T05:28:35.960Z,10.00
2023-03-10T05:31:11.224Z,10.00
2023-03-10T05:33:39.203Z,10.00
2023-03-10T05:36:09.486Z,10.00
2023-03-10T05:38:41.180Z,10.00
2023-03-10T05:41:11.303Z,9.90
2023-03-10T05:43:48.284Z,10.00
2023-03-10T05:46:17.603Z,9.90
2023-03-10T05:48:48.183Z,9.90
2023-03-10T05:51:17.686Z,9.90
2023-03-10T05:53:54.244Z,9.90
2023-03-10T05:56:22.902Z,9.90
2023-03-10T05:58:52.264Z,9.90
2023-03-10T06:01:22.077Z,9.80
2023-03-10T06:03:50.192Z,9.80
2023-03-10T06:06:22.325Z,9.80
2023-03-10T06:08:50.343Z,9.80
2023-03-10T06:11:20.525Z,9.80
2023-03-10T06:13:50.321Z,9.80
2023-03-10T06:16:23.074Z,9.80
2023-03-10T06:18:55.890Z,9.80
2023-03-10T06:21:25.140Z,9.80
2023-03-10T06:23:55.432Z,9.80
2023-03-10T06:26:24.560Z,9.80
2023-03-10T06:28:53.217Z,9.80
2023-03-10T06:31:27.401Z,9.80
2023-03-10T06:33:57.019Z,9.80
2023-03-10T06:36:26.976Z,9.70
2023-03-10T06:38:56.363Z,9.70
2023-03-10T06:41:28.245Z,9.70
2023-03-10T06:43:57.049Z,9.70
2023-03-10T06:46:32.939Z,9.70
2023-03-10T06:49:00.769Z,9.70
2023-03-10T06:51:28.592Z,9.70
2023-03-10T06:53:57.778Z,9.70
2023-03-10T06:56:34.404Z,9.80
2023-03-10T06:59:04.991Z,9.80
2023-03-10T07:01:37.109Z,9.80
2023-03-10T07:04:05.040Z,9.80
2023-03-10T07:06:33.321Z,9.80
2023-03-10T07:09:01.727Z,9.80
2023-03-10T07:11:31.093Z,9.80
2023-03-10T07:13:59.205Z,9.80
2023-03-10T07:16:27.142Z,9.80
2023-03-10T07:18:56.494Z,9.80
2023-03-10T07:21:24.561Z,9.80
2023-03-10T07:23:52.608Z,9.90
2023-03-10T07:26:20.693Z,9.90
2023-03-10T07:28:49.185Z,9.90
2023-03-10T07:31:17.898Z,9.90
2023-03-10T07:33:46.027Z,9.90
2023-03-10T07:36:17.341Z,9.90
2023-03-10T07:38:46.139Z,10.00
2023-03-10T07:41:18.843Z,10.00
2023-03-10T07:43:48.109Z,10.00
2023-03-10T07:46:20.713Z,10.00
2023-03-10T07:49:04.182Z,10.00
2023-03-10T07:51:34.533Z,10.00
2023-03-10T07:54:02.639Z,10.00
2023-03-10T07:56:30.587Z,10.00
2023-03-10T07:59:01.367Z,10.00
2023-03-10T08:01:29.337Z,10.00
2023-03-10T08:03:58.275Z,10.00
2023-03-10T08:06:28.542Z,9.90
2023-03-10T08:08:58.121Z,9.90
2023-03-10T08:11:26.992Z,9.90
2023-03-10T08:13:56.356Z,9.90
2023-03-10T08:16:24.819Z,9.90
2023-03-10T08:18:53.494Z,9.90
2023-03-10T08:21:21.587Z,9.80
2023-03-10T08:23:49.814Z,9.80
2023-03-10T08:26:23.340Z,9.80
2023-03-10T08:28:51.185Z,9.80
2023-03-10T08:31:23.894Z,9.80
2023-03-10T08:33:56.259Z,9.80
2023-03-10T08:36:30.068Z,9.80
2023-03-10T08:39:00.880Z,9.80
2023-03-10T08:41:32.462Z,9.80
2023-03-10T08:44:01.230Z,9.70
2023-03-10T08:46:32.136Z,9.70
2023-03-10T08:49:00.821Z,9.70
2023-03-10T08:51:29.911Z,9.70
2023-03-10T08:53:58.422Z,9.80
2023-03-10T08:56:29.140Z,9.80
2023-03-10T08:59:00.727Z,9.70
2023-03-10T09:01:32.435Z,9.80
2023-03-10T09:04:03.561Z,9.80
2023-03-10T09:06:33.259Z,9.80
2023-03-10T09:09:02.055Z,9.80
2023-03-10T09:11:33.484Z,9.80
2023-03-10T09:14:16.781Z,9.80
2023-03-10T09:16:52.883Z,9.80
2023-03-10T09:19:25.827Z,9.80
2023-03-10T09:21:53.830Z,9.80
2023-03-10T09:24:22.730Z,9.80
2023-03-10T09:26:52.090Z,9.90
2023-03-10T09:29:41.719Z,9.90
2023-03-10T09:32:17.107Z,9.90
2023-03-10T09:34:45.648Z,9.90
2023-03-10T09:37:13.506Z,9.90
2023-03-10T09:39:46.448Z,9.90
2023-03-10T09:42:41.365Z,9.90
2023-03-10T09:45:30.518Z,9.90
2023-03-10T09:48:47.308Z,10.00
2023-03-10T09:51:22.220Z,10.00
2023-03-10T09:54:18.586Z,10.00
2023-03-10T09:56:48.154Z,10.00
2023-03-10T09:59:22.048Z,10.00
2023-03-10T10:01:54.998Z,10.00
2023-03-10T10:04:29.548Z,10.00
2023-03-10T10:06:59.593Z,10.00
2023-03-10T10:09:35.623Z,10.00
2023-03-10T10:12:13.549Z,10.00
2023-03-10T10:14:55.064Z,10.00
2023-03-10T10:17:47.328Z,10.00
2023-03-10T10:20:27.004Z,10.00
2023-03-10T10:22:54.888Z,10.00
2023-03-10T10:25:25.320Z,10.10
2023-03-10T10:27:56.075Z,10.10
2023-03-10T10:30:33.299Z,10.10
2023-03-10T10:33:05.959Z,10.10
2023-03-10T10:35:37.565Z,10.10
2023-03-10T10:38:23.371Z,10.20
2023-03-10T10:41:05.098Z,10.10
2023-03-10T10:43:41.509Z,10.20
2023-03-10T10:46:10.597Z,10.20
2023-03-10T10:48:45.607Z,10.20
2023-03-10T10:51:24.612Z,10.20
2023-03-10T10:53:53.457Z,10.20
2023-03-10T10:56:34.114Z,10.10
2023-03-10T10:59:07.083Z,10.20
2023-03-10T11:01:52.598Z,10.20
2023-03-10T11:04:25.117Z,10.20
2023-03-10T11:06:57.022Z,10.20
2023-03-10T11:09:24.961Z,10.20
2023-03-10T11:12:04.682Z,10.20
2023-03-10T11:14:43.345Z,10.20
2023-03-10T11:17:16.181Z,10.30
2023-03-10T11:19:58.403Z,10.30
2023-03-10T11:22:36.558Z,10.30
2023-03-10T11:25:14.333Z,10.30
2023-03-10T11:27:52.881Z,10.40
2023-03-10T11:30:32.380Z,10.40
2023-03-10T11:33:16.262Z,10.30
2023-03-10T11:35:49.384Z,10.40
2023-03-10T11:38:39.011Z,10.40
2023-03-10T11:41:15.278Z,10.40
2023-03-10T11:43:57.366Z,10.40
2023-03-10T11:46:30.589Z,10.40
2023-03-10T11:49:07.794Z,10.40
2023-03-10T11:51:45.676Z,10.40
2023-03-10T11:54:23.435Z,10.40
2023-03-10T11:56:56.728Z,10.30
2023-03-10T11:59:33.549Z,10.40
2023-03-10T12:02:08.396Z,10.40
2023-03-10T12:04:43.164Z,10.40
2023-03-10T12:07:19.051Z,10.40
2023-03-10T12:09:50.812Z,10.40
2023-03-10T12:12:26.181Z,10.40
2023-03-10T12:14:56.533Z,10.40
2023-03-10T12:17:25.475Z,10.40
2023-03-10T12:20:36.520Z,10.40
2023-03-10T12:23:42.648Z,10.40
2023-03-10T12:26:18.905Z,10.40
2023-03-10T12:28:55.391Z,10.50
2023-03-10T12:31:49.084Z,10.50
2023-03-10T12:34:22.491Z,10.50
2023-03-10T12:36:53.857Z,10.50
2023-03-10T12:39:41.440Z,10.50
2023-03-10T12:42:31.163Z,10.40
2023-03-10T12:45:24.758Z,10.40
2023-03-10T12:48:02.930Z,10.40
2023-03-10T12:50:37.937Z,10.40
2023-03-10T12:53:28.038Z,10.40
2023-03-10T12:56:34.513Z,10.40
2023-03-10T12:59:09.896Z,10.40
2023-03-10T13:01:49.513Z,10.40
2023-03-10T13:04:24.007Z,10.40
2023-03-10T13:06:58.109Z,10.40
2023-03-10T13:09:30.390Z,10.40
2023-03-10T13:12:04.045Z,10.30
2023-03-10T13:14:38.216Z,10.40
2023-03-10T13:17:06.957Z,10.40
2023-03-10T13:19:36.819Z,10.40
2023-03-10T13:22:05.543Z,10.30
2023-03-10T13:24:35.602Z,10.30
2023-03-10T13:27:12.789Z,10.30
2023-03-10T13:29:41.528Z,10.30
2023-03-10T13:32:20.315Z,10.30
2023-03-10T13:34:52.957Z,10.30
2023-03-10T13:37:31.074Z,10.30
2023-03-10T13:40:09.166Z,10.20
2023-03-10T13:42:44.321Z,10.20
2023-03-10T13:45:23.119Z,10.20
2023-03-10T13:47:52.280Z,10.20
2023-03-10T13:50:20.405Z,10.20
2023-03-10T13:52:57.767Z,10.20
2023-03-10T13:55:26.547Z,10.20
2023-03-10T13:57:56.956Z,10.20
2023-03-10T14:00:26.840Z,10.20
2023-03-10T14:02:56.153Z,10.20
2023-03-10T14:05:47.976Z,10.20
2023-03-10T14:08:27.772Z,10.20
2023-03-10T14:11:21.829Z,10.20
2023-03-10T14:13:51.608Z,10.20
2023-03-10T14:16:19.492Z,10.20
2023-03-10T14:18:47.426Z,10.20
2023-03-10T14:21:25.665Z,10.20
2023-03-10T14:23:56.832Z,10.10
2023-03-10T14:26:25.015Z,10.20
2023-03-10T14:28:54.324Z,10.10
2023-03-10T14:31:24.751Z,10.10
2023-03-10T14:33:53.182Z,10.10
2023-03-10T14:36:21.111Z,10.10
2023-03-10T14:38:56.472Z,10.10
2023-03-10T14:41:26.127Z,10.10
2023-03-10T14:43:55.379Z,10.00
2023-03-10T14:46:23.381Z,10.00
2023-03-10T14:48:51.510Z,10.00
2023-03-10T14:51:34.492Z,10.00
2023-03-10T14:54:03.333Z,10.00
2023-03-10T14:56:32.261Z,10.00
2023-03-10T14:59:02.236Z,10.00
2023-03-10T15:01:30.497Z,10.00
2023-03-10T15:04:00.190Z,10.00
2023-03-10T15:06:28.120Z,10.00
2023-03-10T15:08:56.045Z,9.90
2023-03-10T15:11:36.003Z,9.90
2023-03-10T15:14:06.022Z,9.90
2023-03-10T15:16:33.869Z,9.90
2023-03-10T15:19:01.717Z,9.90
2023-03-10T15:21:29.563Z,9.80
2023-03-10T15:23:59.969Z,9.80
2023-03-10T15:26:28.691Z,9.80
2023-03-10T15:28:56.694Z,9.80
2023-03-10T15:31:25.985Z,9.80
2023-03-10T15:33:56.997Z,9.70
2023-03-10T15:36:25.601Z,9.70
2023-03-10T15:38:54.066Z,9.70
2023-03-10T15:41:21.888Z,9.70
2023-03-10T15:43:53.918Z,9.70
2023-03-10T15:46:22.239Z,9.70
2023-03-10T15:48:59.071Z,9.70
2023-03-10T15:51:27.067Z,9.60
2023-03-10T15:53:56.596Z,9.60
2023-03-10T15:56:25.971Z,9.60
2023-03-10T15:58:53.998Z,9.60
2023-03-10T16:01:24.172Z,9.60
2023-03-10T16:03:52.767Z,9.60
2023-03-10T16:06:25.541Z,9.60
2023-03-10T16:08:53.398Z,9.60
2023-03-10T16:11:22.066Z,9.60
2023-03-10T16:13:50.990Z,9.60
2023-03-10T16:16:23.722Z,9.60
2023-03-10T16:18:55.638Z,9.60
2023-03-10T16:21:27.924Z,9.50
2023-03-10T16:23:57.110Z,9.50
2023-03-10T16:26:26.638Z,9.50
2023-03-10T16:28:56.596Z,9.50
2023-03-10T16:31:27.789Z,9.50
2023-03-10T16:33:56.667Z,9.50
2023-03-10T16:36:28.224Z,9.50
2023-03-10T16:38:57.787Z,9.50
2023-03-10T16:41:29.777Z,9.40
2023-03-10T16:43:59.072Z,9.40
2023-03-10T16:46:30.871Z,9.40
2023-03-10T16:49:00.748Z,9.40
2023-03-10T16:51:33.372Z,9.40
2023-03-10T16:54:02.747Z,9.30
2023-03-10T16:56:31.891Z,9.30
2023-03-10T16:59:00.107Z,9.30
2023-03-10T17:01:28.388Z,9.30
2023-03-10T17:03:57.764Z,9.30
2023-03-10T17:06:28.879Z,9.20
2023-03-10T17:08:59.500Z,9.20
2023-03-10T17:11:29.246Z,9.20
2023-03-10T17:13:59.706Z,9.20
2023-03-10T17:16:30.814Z,9.10
2023-03-10T17:19:01.004Z,9.10
2023-03-10T17:21:32.710Z,9.10
2023-03-10T17:24:02.298Z,9.00
2023-03-10T17:26:30.284Z,9.00
2023-03-10T17:28:58.270Z,8.90
2023-03-10T17:31:29.233Z,8.90
2023-03-10T17:33:59.238Z,8.90
2023-03-10T17:36:28.057Z,8.90
2023-03-10T17:38:56.930Z,8.90
2023-03-10T17:41:26.940Z,8.80
2023-03-10T17:43:55.591Z,8.80
2023-03-10T17:46:25.486Z,8.80
2023-03-10T17:48:53.987Z,8.80
2023-03-10T17:51:23.845Z,8.70
2023-03-10T17:53:52.741Z,8.70
2023-03-10T17:56:21.949Z,8.70
2023-03-10T17:58:53.478Z,8.70
2023-03-10T18:01:23.475Z,8.70
2023-03-10T18:03:51.409Z,8.70
2023-03-10T18:06:22.379Z,8.60
2023-03-10T18:08:50.901Z,8.60
2023-03-10T18:11:19.906Z,8.60
2023-03-10T18:13:55.576Z,8.50
2023-03-10T18:16:25.534Z,8.50
2023-03-10T18:18:53.849Z,8.50
2023-03-10T18:21:22.480Z,8.50
2023-03-10T18:23:51.205Z,8.40
2023-03-10T18:26:22.132Z,8.40
2023-03-10T18:28:50.176Z,8.40
2023-03-10T18:31:21.438Z,8.40
2023-03-10T18:33:49.959Z,8.40
2023-03-10T18:36:19.550Z,8.40
2023-03-10T18:38:48.851Z,8.30
2023-03-10T18:41:19.455Z,8.30
2023-03-10T18:43:54.734Z,8.30
2023-03-10T18:46:23.955Z,8.30
2023-03-10T18:48:55.427Z,8.30
2023-03-10T18:51:24.722Z,8.20
2023-03-10T18:53:53.124Z,8.20
2023-03-10T18:56:21.425Z,8.20
2023-03-10T18:58:49.405Z,8.20
2023-03-10T19:01:17.588Z,8.20
2023-03-10T19:03:47.386Z,8.10
2023-03-10T19:06:15.511Z,8.10
2023-03-10T19:08:43.952Z,8.10
2023-03-10T19:11:12.127Z,8.10
2023-03-10T19:13:43.708Z,8.00
2023-03-10T19:16:12.594Z,8.00
2023-03-10T19:18:40.669Z,8.00
2023-03-10T19:21:12.875Z,7.90
2023-03-10T19:23:41.520Z,7.90
2023-03-10T19:26:09.907Z,7.90
2023-03-10T19:28:37.839Z,7.90
2023-03-10T19:31:10.309Z,7.90
2023-03-10T19:33:39.881Z,7.90
2023-03-10T19:36:12.013Z,7.80
2023-03-10T19:38:41.357Z,7.80
2023-03-10T19:41:13.227Z,7.70
2023-03-10T19:43:41.220Z,7.70
2023-03-10T19:46:11.437Z,7.70
2023-03-10T19:48:40.031Z,7.70
2023-03-10T19:51:09.915Z,7.70
2023-03-10T19:53:37.846Z,7.60
2023-03-10T19:56:07.700Z,7.60
2023-03-10T19:58:35.554Z,7.50
2023-03-10T20:01:03.538Z,7.50
2023-03-10T20:03:34.062Z,7.40
2023-03-10T20:06:04.192Z,7.40
2023-03-10T20:08:34.045Z,7.40
2023-03-10T20:11:03.409Z,7.30
2023-03-10T20:13:33.268Z,7.30
2023-03-10T20:16:01.157Z,7.20
2023-03-10T20:18:29.120Z,7.10
2023-03-10T20:20:56.939Z,7.10
2023-03-10T20:23:25.133Z,7.00
2023-03-10T20:26:01.456Z,6.90
2023-03-10T20:28:29.566Z,6.90
2023-03-10T20:30:57.420Z,6.80
2023-03-10T20:33:25.261Z,6.80
2023-03-10T20:35:53.487Z,6.70
2023-03-10T20:38:21.738Z,6.70
2023-03-10T20:40:49.637Z,6.60
2023-03-10T20:43:29.896Z,6.70
2023-03-10T20:45:57.912Z,6.60
2023-03-10T20:48:26.464Z,6.60
2023-03-10T20:50:56.058Z,6.60
2023-03-10T20:53:24.105Z,6.50
2023-03-10T20:55:52.433Z,6.50
2023-03-10T20:58:21.715Z,6.50
2023-03-10T21:00:49.753Z,6.40
2023-03-10T21:03:17.662Z,6.50
2023-03-10T21:05:52.508Z,6.40
2023-03-10T21:08:20.781Z,6.40
2023-03-10T21:10:49.563Z,6.40
2023-03-10T21:13:17.572Z,6.30
2023-03-10T21:15:47.263Z,6.30
2023-03-10T21:18:15.090Z,6.30
2023-03-10T21:20:42.956Z,6.30
2023-03-10T21:23:10.922Z,6.30
2023-03-10T21:25:38.911Z,6.30
2023-03-10T21:28:07.101Z,6.30
2023-03-10T21:30:35.217Z,6.20
2023-03-10T21:33:04.535Z,6.20
2023-03-10T21:35:34.275Z,6.20
2023-03-10T21:38:02.548Z,6.20
2023-03-10T21:40:30.475Z,6.20
2023-03-10T21:43:00.240Z,6.10
2023-03-10T21:45:30.212Z,6.10
2023-03-10T21:47:58.044Z,6.10
2023-03-10T21:50:27.331Z,6.10
2023-03-10T21:52:55.274Z,6.10
2023-03-10T21:55:25.182Z,6.20
2023-03-10T21:57:53.763Z,6.10
2023-03-10T22:00:23.355Z,6.10
2023-03-10T22:02:52.099Z,6.10
2023-03-10T22:05:20.819Z,6.10
2023-03-10T22:07:50.763Z,6.10
2023-03-10T22:10:19.921Z,6.10
2023-03-10T22:12:56.989Z,6.10
2023-03-10T22:15:27.822Z,6.10
2023-03-10T22:17:56.609Z,6.10
2023-03-10T22:20:26.358Z,6.00
2023-03-10T22:22:57.198Z,6.10
2023-03-10T22:25:25.484Z,6.10
2023-03-10T22:27:55.577Z,6.10
2023-03-10T22:30:27.714Z,6.10
2023-03-10T22:32:56.105Z,6.10
2023-03-10T22:35:24.290Z,6.00
2023-03-10T22:37:52.585Z,6.00
2023-03-10T22:40:24.995Z,6.00
2023-03-10T22:42:53.068Z,6.00
2023-03-10T22:45:22.822Z,6.00
2023-03-10T22:47:53.046Z,6.00
2023-03-10T22:50:23.614Z,6.00
2023-03-10T22:52:51.550Z,6.00
2023-03-10T22:55:24.529Z,6.00
2023-03-10T22:57:56.479Z,6.00
2023-03-10T23:00:24.364Z,6.00
2023-03-10T23:02:53.709Z,5.90
2023-03-10T23:05:21.907Z,5.90
2023-03-10T23:07:50.855Z,6.00
2023-03-10T23:10:21.534Z,5.90
2023-03-10T23:12:51.590Z,5.90
2023-03-10T23:15:25.352Z,5.90
2023-03-10T23:17:53.927Z,5.90
2023-03-10T23:20:23.993Z,5.90
2023-03-10T23:22:51.964Z,5.90
2023-03-10T23:25:21.383Z,5.80
2023-03-10T23:27:50.760Z,5.80
2023-03-10T23:30:18.969Z,5.80
2023-03-10T23:32:49.302Z,5.80
2023-03-10T23:35:19.311Z,5.80
2023-03-10T23:37:47.374Z,5.80
2023-03-10T23:40:17.956Z,5.80
2023-03-10T23:42:47.030Z,5.80
2023-03-10T23:45:19.625Z,5.80
2023-03-10T23:47:48.275Z,5.70
2023-03-10T23:50:20.452Z,5.70
2023-03-10T23:52:49.354Z,5.50
2023-03-10T23:55:19.490Z,5.50
2023-03-10T23:57:47.617Z,5.50
